Time;durP1;ratioP1;P1;durP2;ratioP2;P2;SDS_P1;SDS_P2;PMS_P1;PMS_P2;Temp;Humidity;BMP_temperature;BMP_pressure;BME280_temperature;BME280_humidity;BME280_pressure;Samples;Min_cycle;Max_cycle;Signal;HPM_P1;HPM_P2
2022/08/29 00:00:06;;;;;;;5.90;1.38;;;14.70;99.90;;;;;;4972543;28;20027;-60
2022/08/29 00:02:32;;;;;;;4.45;1.10;;;14.70;99.90;;;;;;4970885;28;20046;-60
2022/08/29 00:04:58;;;;;;;4.18;1.30;;;14.70;99.90;;;;;;4969740;28;20023;-60
2022/08/29 00:07:23;;;;;;;3.53;1.00;;;14.60;99.90;;;;;;4972111;28;20113;-60
2022/08/29 00:09:49;;;;;;;5.88;1.90;;;14.60;99.90;;;;;;4970435;28;20037;-59
2022/08/29 00:12:15;;;;;;;5.97;1.25;;;14.70;99.90;;;;;;4970709;28;20034;-60
2022/08/29 00:14:40;;;;;;;5.20;1.00;;;14.60;99.90;;;;;;4970173;28;20030;-60
2022/08/29 00:17:06;;;;;;;3.83;1.20;;;14.60;99.90;;;;;;4971565;28;20033;-60
2022/08/29 00:19:31;;;;;;;3.25;1.30;;;14.60;99.90;;;;;;4968306;28;20035;-60
2022/08/29 00:21:57;;;;;;;3.72;1.30;;;14.60;99.90;;;;;;4971823;28;20031;-60
2022/08/29 00:24:23;;;;;;;2.10;1.50;;;14.50;99.90;;;;;;4971001;28;20410;-59
2022/08/29 00:26:49;;;;;;;4.15;1.33;;;14.50;99.90;;;;;;4968615;28;20039;-61
2022/08/29 00:29:14;;;;;;;3.80;1.10;;;14.50;99.90;;;;;;4966141;28;20026;-61
2022/08/29 00:31:40;;;;;;;5.40;1.70;;;14.50;99.90;;;;;;4970264;28;20443;-60
2022/08/29 00:34:06;;;;;;;3.45;1.30;;;14.50;99.90;;;;;;4971643;28;20046;-60
2022/08/29 00:36:32;;;;;;;2.40;1.23;;;14.50;99.90;;;;;;4968989;28;20035;-60
2022/08/29 00:38:58;;;;;;;4.13;1.40;;;14.50;99.90;;;;;;4971614;28;20506;-60
2022/08/29 00:41:24;;;;;;;3.13;1.35;;;14.50;99.90;;;;;;4971475;28;20426;-60
2022/08/29 00:43:50;;;;;;;2.38;1.00;;;14.60;99.90;;;;;;4967581;28;20039;-60
2022/08/29 00:46:35;;;;;;;2.05;1.00;;;14.50;99.90;;;;;;4969989;28;20050;-60
2022/08/29 00:49:07;;;;;;;3.30;1.10;;;14.50;99.90;;;;;;4971360;28;20118;-61
2022/08/29 00:51:34;;;;;;;2.58;1.15;;;14.50;99.90;;;;;;4959696;28;20126;-60
2022/08/29 00:54:06;;;;;;;3.38;1.15;;;14.50;99.90;;;;;;4971246;28;20033;-60
2022/08/29 00:56:35;;;;;;;3.85;1.05;;;14.50;99.90;;;;;;4968264;28;20031;-60
2022/08/29 00:59:12;;;;;;;4.22;1.50;;;14.50;99.90;;;;;;4969460;28;20054;-60
2022/08/29 01:01:38;;;;;;;4.18;1.23;;;14.50;99.90;;;;;;4959268;28;20030;-60
2022/08/29 01:04:05;;;;;;;7.38;1.50;;;14.50;99.90;;;;;;4971197;28;20336;-60
2022/08/29 01:06:33;;;;;;;3.15;1.23;;;14.40;99.90;;;;;;4969324;28;20061;-60
2022/08/29 01:08:59;;;;;;;4.53;1.30;;;14.40;99.90;;;;;;4971437;28;20398;-61
2022/08/29 01:14:15;;;;;;;5.35;1.15;;;14.30;99.90;;;;;;4965798;28;20045;-60
2022/08/29 01:16:41;;;;;;;3.03;1.02;;;14.30;99.90;;;;;;4968822;28;20051;-61
2022/08/29 01:19:30;;;;;;;7.47;1.13;;;14.30;99.90;;;;;;4971152;28;20019;-60
2022/08/29 01:22:06;;;;;;;4.60;1.38;;;14.30;99.90;;;;;;4970571;28;20038;-59
2022/08/29 01:24:36;;;;;;;2.40;1.40;;;14.30;99.90;;;;;;4969237;28;20054;-59
2022/08/29 01:27:02;;;;;;;2.65;1.40;;;14.30;99.90;;;;;;4969150;28;20027;-58
2022/08/29 01:29:28;;;;;;;2.05;1.00;;;14.30;99.90;;;;;;4968572;28;20151;-60
2022/08/29 01:31:54;;;;;;;6.40;1.33;;;14.30;99.90;;;;;;4969944;28;20047;-59
2022/08/29 01:34:20;;;;;;;4.70;1.20;;;14.30;99.90;;;;;;4970575;28;20113;-59
2022/08/29 01:36:51;;;;;;;5.53;1.10;;;14.30;99.90;;;;;;4967767;28;20035;-59
2022/08/29 01:39:19;;;;;;;3.20;1.13;;;14.30;99.90;;;;;;4970763;28;20038;-60
2022/08/29 01:41:44;;;;;;;3.47;1.35;;;14.40;99.90;;;;;;4968022;28;20958;-59
2022/08/29 01:44:13;;;;;;;4.45;1.20;;;14.40;99.90;;;;;;4955752;28;20035;-60
2022/08/29 01:46:39;;;;;;;4.13;1.15;;;14.30;99.90;;;;;;4968383;28;20058;-59
2022/08/29 01:49:08;;;;;;;1.98;1.10;;;14.30;99.90;;;;;;4970476;28;20442;-59
2022/08/29 01:51:34;;;;;;;7.63;2.10;;;14.40;99.90;;;;;;4968397;28;20081;-59
2022/08/29 01:54:00;;;;;;;4.40;1.25;;;14.40;99.90;;;;;;4970594;28;20063;-59
2022/08/29 01:56:30;;;;;;;2.60;1.05;;;14.50;99.90;;;;;;4967271;28;20069;-60
2022/08/29 01:58:58;;;;;;;3.03;1.33;;;14.50;99.90;;;;;;4970651;28;20041;-61
2022/08/29 02:01:28;;;;;;;3.67;1.10;;;14.50;99.90;;;;;;4970381;28;20044;-61
2022/08/29 02:03:53;;;;;;;4.05;1.10;;;14.40;99.90;;;;;;4970607;28;20041;-61
2022/08/29 02:06:20;;;;;;;4.10;0.93;;;14.40;99.90;;;;;;4968449;28;20048;-60
2022/08/29 02:08:46;;;;;;;2.30;0.90;;;14.30;99.90;;;;;;4968024;28;20043;-61
2022/08/29 02:11:14;;;;;;;2.35;1.15;;;14.20;99.90;;;;;;4970070;28;20498;-58
2022/08/29 02:13:45;;;;;;;6.60;1.30;;;14.10;99.90;;;;;;4967663;28;20026;-60
2022/08/29 02:16:12;;;;;;;3.75;2.53;;;14.10;99.90;;;;;;4970236;28;20085;-59
2022/08/29 02:18:41;;;;;;;7.75;1.85;;;14.00;99.90;;;;;;4968889;28;20118;-59
2022/08/29 02:21:08;;;;;;;3.17;1.15;;;14.00;99.90;;;;;;4969162;28;20039;-60
2022/08/29 02:23:35;;;;;;;1.77;1.00;;;14.00;99.90;;;;;;4968607;28;20104;-59
2022/08/29 02:26:01;;;;;;;4.18;1.42;;;14.00;99.90;;;;;;4970399;28;20027;-59
2022/08/29 02:28:27;;;;;;;3.75;1.20;;;14.00;99.90;;;;;;4967446;28;20031;-60
2022/08/29 02:30:53;;;;;;;8.68;2.53;;;14.00;99.90;;;;;;4970017;28;20035;-60
2022/08/29 02:33:20;;;;;;;4.20;1.40;;;13.90;99.90;;;;;;4969965;28;20085;-60
2022/08/29 02:35:47;;;;;;;3.88;1.30;;;13.90;99.90;;;;;;4965452;28;20062;-60
2022/08/29 02:38:13;;;;;;;3.22;1.20;;;14.00;99.90;;;;;;4977210;28;20027;-59
2022/08/29 02:40:40;;;;;;;4.38;1.17;;;13.90;99.90;;;;;;4970841;28;20029;-60
2022/08/29 02:43:07;;;;;;;3.05;1.20;;;13.90;99.90;;;;;;4970908;28;20094;-59
2022/08/29 02:45:36;;;;;;;3.55;1.70;;;14.00;99.90;;;;;;4977250;28;20035;-59
2022/08/29 02:48:02;;;;;;;5.18;1.35;;;14.00;99.90;;;;;;4970190;28;20061;-59
2022/08/29 02:50:29;;;;;;;4.30;1.27;;;14.00;99.90;;;;;;4962281;28;20057;-59
2022/08/29 02:52:55;;;;;;;3.55;1.40;;;14.00;99.90;;;;;;4970515;28;20030;-59
2022/08/29 02:55:22;;;;;;;5.20;1.58;;;13.90;99.90;;;;;;4982846;28;20061;-59
2022/08/29 02:57:48;;;;;;;4.88;1.30;;;13.90;99.90;;;;;;4976622;28;20058;-59
2022/08/29 03:00:20;;;;;;;3.17;1.20;;;13.90;99.90;;;;;;4987677;28;20064;-60
2022/08/29 03:02:46;;;;;;;;;;;13.90;99.90;;;;;;4978584;28;20399;-60
2022/08/29 03:05:13;;;;;;;4.82;1.35;;;13.80;99.90;;;;;;4976592;28;19914;-60
2022/08/29 03:07:39;;;;;;;4.20;1.30;;;13.80;99.90;;;;;;4974919;28;20042;-60
2022/08/29 03:10:06;;;;;;;4.00;1.80;;;13.80;99.90;;;;;;4974526;28;20067;-60
2022/08/29 03:12:33;;;;;;;2.88;1.10;;;13.80;99.90;;;;;;4959587;28;20117;-60
2022/08/29 03:14:58;;;;;;;4.07;1.25;;;13.80;99.90;;;;;;4971073;28;20089;-60
2022/08/29 03:17:25;;;;;;;4.57;1.40;;;13.70;99.90;;;;;;4979007;28;20031;-60
2022/08/29 03:19:50;;;;;;;2.00;0.90;;;13.70;99.90;;;;;;4987741;28;20373;-60
2022/08/29 03:22:17;;;;;;;3.42;1.13;;;13.60;99.90;;;;;;4983590;28;20466;-60
2022/08/29 03:24:43;;;;;;;8.00;1.40;;;13.60;99.90;;;;;;4977557;28;20498;-60
2022/08/29 03:27:08;;;;;;;4.20;1.70;;;13.60;99.90;;;;;;4979050;28;20076;-59
2022/08/29 03:29:34;;;;;;;2.05;1.25;;;13.50;99.90;;;;;;4975254;28;20038;-60
2022/08/29 03:32:00;;;;;;;3.25;1.38;;;13.40;99.90;;;;;;4979918;28;20113;-60
2022/08/29 03:34:28;;;;;;;4.70;1.30;;;13.40;99.90;;;;;;4980562;28;20051;-60
2022/08/29 03:36:54;;;;;;;4.03;1.38;;;13.40;99.90;;;;;;4980460;28;20524;-60
2022/08/29 03:39:20;;;;;;;5.03;1.50;;;13.30;99.90;;;;;;4988689;28;20033;-60
2022/08/29 03:41:46;;;;;;;3.50;1.48;;;13.30;99.90;;;;;;4976594;28;20035;-60
2022/08/29 03:44:11;;;;;;;3.65;1.50;;;13.40;99.90;;;;;;4979983;23;20043;-65
2022/08/29 03:46:38;;;;;;;4.68;1.45;;;13.30;99.90;;;;;;4971086;28;20441;-64
2022/08/29 03:49:06;;;;;;;4.40;1.70;;;13.30;99.90;;;;;;4972315;28;20030;-64
2022/08/29 03:51:35;;;;;;;4.53;1.58;;;13.30;99.90;;;;;;4969339;28;20030;-64
2022/08/29 03:54:01;;;;;;;5.82;1.40;;;13.20;99.90;;;;;;4972567;28;20035;-64
2022/08/29 03:56:27;;;;;;;6.43;3.22;;;13.20;99.90;;;;;;4970477;28;20027;-65
2022/08/29 03:58:54;;;;;;;3.80;1.40;;;13.20;99.90;;;;;;4970103;28;20130;-65
2022/08/29 04:01:27;;;;;;;6.35;1.70;;;13.20;99.90;;;;;;4975601;28;20126;-65
2022/08/29 04:03:53;;;;;;;2.50;1.23;;;13.20;99.90;;;;;;4972361;28;20097;-65
2022/08/29 04:06:21;;;;;;;4.13;1.33;;;13.20;99.90;;;;;;4971839;28;20035;-64
2022/08/29 04:08:47;;;;;;;3.80;1.45;;;13.20;99.90;;;;;;4970428;28;20121;-64
2022/08/29 04:11:15;;;;;;;4.88;1.50;;;13.10;99.90;;;;;;4971700;28;20051;-63
2022/08/29 04:13:40;;;;;;;5.22;1.48;;;13.20;99.90;;;;;;4970425;28;20027;-64
2022/08/29 04:16:10;;;;;;;5.45;1.60;;;13.20;99.90;;;;;;4971999;28;20057;-64
2022/08/29 04:18:36;;;;;;;4.07;1.23;;;13.20;99.90;;;;;;4970252;28;20117;-64
2022/08/29 04:21:03;;;;;;;5.70;1.20;;;13.30;99.90;;;;;;4971609;28;20031;-64
2022/08/29 04:23:29;;;;;;;8.55;2.10;;;13.30;99.90;;;;;;4969228;28;20039;-65
2022/08/29 04:25:55;;;;;;;6.80;1.60;;;13.30;99.90;;;;;;4972329;28;20027;-64
2022/08/29 04:28:20;;;;;;;4.00;1.70;;;13.20;99.90;;;;;;4971361;28;20030;-65
2022/08/29 04:30:50;;;;;;;4.18;1.80;;;13.20;99.90;;;;;;4970512;28;20055;-65
2022/08/29 04:33:17;;;;;;;6.25;1.40;;;13.10;99.90;;;;;;4971155;28;20035;-64
2022/08/29 04:35:43;;;;;;;4.78;1.85;;;13.10;99.90;;;;;;4969257;28;20031;-62
2022/08/29 04:38:09;;;;;;;3.65;1.60;;;13.10;99.90;;;;;;4976145;28;20398;-64
2022/08/29 04:40:35;;;;;;;4.43;1.50;;;13.10;99.90;;;;;;4969964;28;20031;-63
2022/08/29 04:43:01;;;;;;;3.72;1.48;;;13.10;99.90;;;;;;4970956;28;20043;-64
2022/08/29 04:45:27;;;;;;;5.40;1.48;;;13.10;99.90;;;;;;4969620;28;20037;-64
2022/08/29 04:47:53;;;;;;;5.22;1.77;;;13.10;99.90;;;;;;4977683;28;20042;-63
2022/08/29 04:50:22;;;;;;;2.13;1.50;;;13.20;99.90;;;;;;4980069;28;20109;-64
2022/08/29 04:52:48;;;;;;;2.58;1.35;;;13.10;99.90;;;;;;4976731;28;20042;-64
2022/08/29 04:55:16;;;;;;;7.82;1.90;;;13.10;99.90;;;;;;4971264;28;20035;-65
2022/08/29 04:57:41;;;;;;;8.55;1.80;;;13.10;99.90;;;;;;4965349;28;20510;-65
2022/08/29 05:00:12;;;;;;;5.18;1.80;;;13.10;99.90;;;;;;4975540;28;20097;-64
2022/08/29 05:02:39;;;;;;;4.30;1.70;;;13.00;99.90;;;;;;4968745;28;20382;-63
2022/08/29 05:05:06;;;;;;;5.50;1.95;;;13.00;99.90;;;;;;4970749;28;20031;-64
2022/08/29 05:07:31;;;;;;;6.03;3.38;;;13.00;99.90;;;;;;4970814;28;20038;-64
2022/08/29 05:10:08;;;;;;;4.90;2.03;;;13.00;99.90;;;;;;4971334;28;20037;-64
2022/08/29 05:12:33;;;;;;;6.85;1.83;;;13.00;99.90;;;;;;4963813;28;20035;-63
2022/08/29 05:14:59;;;;;;;2.72;1.40;;;12.90;99.90;;;;;;4971078;28;20383;-64
2022/08/29 05:17:26;;;;;;;3.13;1.48;;;12.90;99.90;;;;;;4969828;28;20027;-64
2022/08/29 05:19:52;;;;;;;3.38;1.50;;;12.90;99.90;;;;;;4970299;28;20457;-64
2022/08/29 05:22:19;;;;;;;2.78;1.50;;;12.90;99.90;;;;;;4970788;28;20101;-64
2022/08/29 05:24:45;;;;;;;3.17;1.70;;;12.80;99.90;;;;;;4969199;28;20046;-64
2022/08/29 05:27:14;;;;;;;3.97;1.58;;;12.80;99.90;;;;;;4964319;28;20102;-66
2022/08/29 05:29:42;;;;;;;2.90;1.60;;;12.80;99.90;;;;;;4970767;28;20026;-64
2022/08/29 05:32:09;;;;;;;6.30;1.95;;;13.00;99.90;;;;;;4970691;28;20118;-64
2022/08/29 05:34:37;;;;;;;3.72;1.90;;;13.00;99.90;;;;;;4969164;28;20054;-64
2022/08/29 05:37:05;;;;;;;4.18;2.28;;;13.10;99.90;;;;;;4969161;28;20022;-64
2022/08/29 05:39:32;;;;;;;3.25;1.55;;;13.10;99.90;;;;;;4969331;28;20045;-65
2022/08/29 05:41:58;;;;;;;6.93;1.88;;;13.10;99.90;;;;;;4970641;28;20419;-64
2022/08/29 05:44:25;;;;;;;9.98;1.98;;;13.10;99.90;;;;;;4970896;28;20051;-64
2022/08/29 05:46:51;;;;;;;7.28;2.38;;;13.20;99.90;;;;;;4970406;28;20034;-65
2022/08/29 05:49:16;;;;;;;5.15;1.80;;;13.20;99.90;;;;;;4970975;28;20398;-65
2022/08/29 05:51:42;;;;;;;2.70;1.63;;;13.20;99.90;;;;;;4968582;28;20100;-64
2022/08/29 05:54:08;;;;;;;10.45;2.47;;;13.20;99.90;;;;;;4971131;28;20386;-65
2022/08/29 05:56:33;;;;;;;4.88;2.05;;;13.30;99.90;;;;;;4970651;28;20031;-64
2022/08/29 05:59:00;;;;;;;4.10;2.10;;;13.40;99.90;;;;;;4961004;28;20530;-64
2022/08/29 06:01:29;;;;;;;4.07;2.10;;;13.40;99.90;;;;;;4968791;28;20038;-65
2022/08/29 06:03:56;;;;;;;4.50;1.98;;;13.40;99.90;;;;;;4971096;28;20035;-65
2022/08/29 06:06:24;;;;;;;5.55;2.17;;;13.40;99.90;;;;;;4970235;28;20398;-64
2022/08/29 06:08:51;;;;;;;4.75;1.77;;;13.40;99.90;;;;;;4977087;28;20050;-65
2022/08/29 06:11:22;;;;;;;6.63;1.83;;;13.40;99.90;;;;;;4970281;28;20512;-65
2022/08/29 06:13:48;;;;;;;9.57;1.80;;;13.40;99.90;;;;;;4969000;28;20023;-67
2022/08/29 06:16:17;;;;;;;2.40;1.83;;;13.50;99.90;;;;;;4973944;28;20284;-64
2022/08/29 06:18:43;;;;;;;6.30;2.03;;;13.50;99.90;;;;;;4978504;28;20070;-64
2022/08/29 06:21:10;;;;;;;6.22;2.17;;;13.50;99.90;;;;;;4974494;28;20031;-64
2022/08/29 06:23:36;;;;;;;7.90;2.17;;;13.50;99.90;;;;;;4972482;28;20551;-64
2022/08/29 06:26:02;;;;;;;9.00;2.22;;;13.60;99.90;;;;;;4974292;28;20060;-64
2022/08/29 06:28:30;;;;;;;4.80;1.70;;;13.60;99.90;;;;;;4976098;28;20035;-64
2022/08/29 06:31:04;;;;;;;2.05;1.73;;;13.70;99.90;;;;;;4987949;28;20030;-64
2022/08/29 06:33:29;;;;;;;5.07;1.75;;;13.70;99.90;;;;;;4971992;28;20050;-64
2022/08/29 06:35:55;;;;;;;3.97;2.13;;;13.70;99.90;;;;;;4974165;28;20113;-64
2022/08/29 06:38:21;;;;;;;7.55;2.05;;;13.70;99.90;;;;;;4977378;28;20037;-63
2022/08/29 06:40:46;;;;;;;3.30;1.83;;;13.80;99.90;;;;;;4971792;28;20027;-65
2022/08/29 06:43:12;;;;;;;4.93;1.88;;;13.80;99.90;;;;;;4973075;28;20055;-64
2022/08/29 06:45:41;;;;;;;7.95;1.98;;;13.90;99.90;;;;;;4972187;28;20062;-65
2022/08/29 06:48:07;;;;;;;6.18;2.08;;;13.90;99.90;;;;;;4971698;28;20490;-65
2022/08/29 06:50:36;;;;;;;12.10;4.00;;;14.00;99.90;;;;;;4961076;28;20037;-64
2022/08/29 06:53:01;;;;;;;2.70;1.55;;;14.10;99.90;;;;;;4975587;28;20042;-64
2022/08/29 06:55:27;;;;;;;3.30;1.80;;;14.10;99.90;;;;;;4976121;28;20022;-64
2022/08/29 06:57:53;;;;;;;3.78;2.10;;;14.10;99.90;;;;;;4970717;28;20371;-65
2022/08/29 07:00:20;;;;;;;4.70;2.03;;;14.10;99.90;;;;;;4971298;28;21460;-65
2022/08/29 07:02:46;;;;;;;2.30;2.00;;;14.20;99.90;;;;;;4968346;28;20043;-64
2022/08/29 07:05:14;;;;;;;4.22;1.73;;;14.30;99.90;;;;;;4969911;28;20031;-65
2022/08/29 07:07:41;;;;;;;4.93;2.40;;;14.30;99.90;;;;;;4967734;28;20109;-65
2022/08/29 07:10:07;;;;;;;5.55;1.55;;;14.40;99.90;;;;;;4970281;28;20033;-64
2022/08/29 07:12:33;;;;;;;4.43;2.17;;;14.50;99.90;;;;;;4965387;28;20158;-65
2022/08/29 07:15:00;;;;;;;4.88;1.92;;;14.60;99.90;;;;;;4970262;28;20027;-65
2022/08/29 07:17:28;;;;;;;4.57;1.73;;;14.60;99.90;;;;;;4970121;28;20027;-65
2022/08/29 07:19:54;;;;;;;3.95;1.90;;;14.60;99.90;;;;;;4969987;28;20046;-64
2022/08/29 07:22:20;;;;;;;10.75;2.10;;;14.70;99.90;;;;;;4969615;28;20075;-64
2022/08/29 07:24:45;;;;;;;3.95;1.80;;;14.80;99.90;;;;;;4968504;28;20043;-64
2022/08/29 07:27:12;;;;;;;3.72;1.75;;;14.90;99.90;;;;;;4968767;28;20177;-64
2022/08/29 07:29:39;;;;;;;6.35;1.77;;;15.00;99.90;;;;;;4966633;28;20042;-65
2022/08/29 07:32:06;;;;;;;4.13;2.00;;;15.10;99.90;;;;;;4969490;28;20077;-68
2022/08/29 07:34:31;;;;;;;6.25;2.60;;;15.20;99.90;;;;;;4971401;28;20077;-65
2022/08/29 07:36:57;;;;;;;7.35;2.63;;;15.30;99.90;;;;;;4968810;28;20062;-65
2022/08/29 07:39:23;;;;;;;5.65;2.22;;;15.50;99.90;;;;;;4965963;28;20444;-64
2022/08/29 07:41:49;;;;;;;4.53;1.73;;;15.60;99.90;;;;;;4967272;28;20023;-65
2022/08/29 07:44:17;;;;;;;4.88;1.48;;;15.70;99.90;;;;;;4969000;28;20388;-65
2022/08/29 07:46:43;;;;;;;3.25;1.20;;;15.80;99.90;;;;;;4969619;28;20030;-65
2022/08/29 07:49:10;;;;;;;2.92;1.20;;;16.00;99.90;;;;;;4967698;28;20034;-64
2022/08/29 07:51:36;;;;;;;4.07;0.90;;;16.10;99.90;;;;;;4967299;28;20026;-64
2022/08/29 07:54:03;;;;;;;2.47;1.08;;;16.30;99.90;;;;;;4968598;28;20161;-65
2022/08/29 07:56:32;;;;;;;5.03;1.20;;;16.40;99.90;;;;;;4966845;28;20494;-65
2022/08/29 07:58:59;;;;;;;3.05;1.35;;;16.50;99.90;;;;;;4968882;28;20058;-65
2022/08/29 08:01:26;;;;;;;3.40;1.33;;;16.80;99.90;;;;;;4968985;28;20498;-64
2022/08/29 08:03:52;;;;;;;4.40;1.10;;;17.10;99.90;;;;;;4965492;28;20046;-64
2022/08/29 08:06:23;;;;;;;3.08;1.27;;;17.30;99.90;;;;;;4968976;28;20039;-64
2022/08/29 08:08:49;;;;;;;1.52;0.70;;;17.40;99.90;;;;;;4962778;28;20027;-64
2022/08/29 08:11:15;;;;;;;2.33;1.08;;;17.60;99.90;;;;;;4968401;28;20030;-64
2022/08/29 08:13:41;;;;;;;4.70;1.02;;;17.70;99.90;;;;;;4970307;28;20077;-64
2022/08/29 08:16:10;;;;;;;3.20;0.90;;;17.80;99.90;;;;;;4972994;28;20144;-64
2022/08/29 08:18:37;;;;;;;3.67;1.30;;;17.90;99.90;;;;;;4969908;28;20156;-65
2022/08/29 08:21:04;;;;;;;3.95;1.05;;;18.00;99.90;;;;;;4972643;28;20022;-63
2022/08/29 08:23:30;;;;;;;4.70;1.15;;;18.30;99.90;;;;;;4976298;28;20385;-64
2022/08/29 08:25:56;;;;;;;5.55;1.40;;;18.30;99.90;;;;;;4972477;28;20027;-66
2022/08/29 08:28:21;;;;;;;3.08;1.05;;;18.40;99.90;;;;;;4980657;28;20030;-63
2022/08/29 08:30:47;;;;;;;6.68;1.70;;;18.50;99.90;;;;;;4976132;28;20105;-63
2022/08/29 08:33:13;;;;;;;8.02;1.02;;;18.60;99.90;;;;;;4979319;28;20045;-67
2022/08/29 08:35:40;;;;;;;3.70;1.25;;;19.00;99.90;;;;;;4972416;28;20030;-64
2022/08/29 08:38:07;;;;;;;4.78;1.17;;;19.20;99.90;;;;;;4977318;28;20065;-66
2022/08/29 08:40:59;;;;;;;4.20;1.00;;;19.30;99.90;;;;;;4972018;28;20109;-64
2022/08/29 08:43:45;;;;;;;6.20;1.13;;;19.40;99.90;;;;;;4973146;28;20060;-66
2022/08/29 08:46:11;;;;;;;5.38;0.95;;;19.40;99.90;;;;;;4974139;28;20558;-65
2022/08/29 08:48:38;;;;;;;2.88;0.73;;;19.40;99.90;;;;;;4970913;28;20094;-66
2022/08/29 08:51:04;;;;;;;3.05;1.33;;;19.50;99.90;;;;;;4974513;28;20034;-68
2022/08/29 08:53:38;;;;;;;5.82;1.50;;;19.60;99.90;;;;;;4973409;28;20084;-65
2022/08/29 08:56:15;;;;;;;3.88;1.00;;;19.60;99.90;;;;;;4971480;28;20035;-66
2022/08/29 08:58:49;;;;;;;4.32;1.02;;;19.70;99.90;;;;;;4960221;28;20030;-65
2022/08/29 09:01:20;;;;;;;3.75;1.00;;;20.00;99.90;;;;;;4971691;28;20041;-66
2022/08/29 09:03:54;;;;;;;5.35;1.20;;;20.20;99.90;;;;;;4962893;28;20031;-65
2022/08/29 09:07:04;;;;;;;3.08;1.00;;;20.40;99.90;;;;;;4971844;28;20034;-65
2022/08/29 09:10:04;;;;;;;1.52;0.80;;;20.70;99.90;;;;;;4947566;28;20516;-66
2022/08/29 09:12:55;;;;;;;8.57;1.50;;;20.80;99.90;;;;;;4928441;28;20070;-64
2022/08/29 09:15:25;;;;;;;2.78;0.80;;;21.10;99.90;;;;;;4949132;28;20050;-65
2022/08/29 09:18:03;;;;;;;3.17;1.10;;;21.20;99.90;;;;;;4950310;28;20031;-65
2022/08/29 09:20:32;;;;;;;5.68;2.08;;;21.40;99.90;;;;;;4953956;28;20043;-66
2022/08/29 09:22:58;;;;;;;2.60;0.85;;;21.30;99.90;;;;;;4950123;28;20035;-65
2022/08/29 09:25:24;;;;;;;4.32;2.00;;;21.00;99.90;;;;;;4949799;28;20101;-66
2022/08/29 09:27:50;;;;;;;2.38;1.20;;;20.60;99.90;;;;;;4947233;28;20454;-66
2022/08/29 09:30:28;;;;;;;3.85;0.80;;;20.50;99.90;;;;;;4949448;28;20043;-65
2022/08/29 09:33:00;;;;;;;4.47;0.90;;;20.40;99.90;;;;;;4948817;28;20490;-65
2022/08/29 09:35:39;;;;;;;1.40;0.85;;;20.50;99.90;;;;;;4944951;28;20494;-65
2022/08/29 09:38:16;;;;;;;3.92;0.88;;;20.90;99.90;;;;;;4951399;28;20503;-66
2022/08/29 09:40:50;;;;;;;4.10;0.88;;;21.20;99.90;;;;;;4947132;28;20434;-64
2022/08/29 09:43:20;;;;;;;5.65;1.50;;;21.30;99.90;;;;;;4956158;28;20046;-64
2022/08/29 09:46:09;;;;;;;5.78;1.35;;;21.30;99.90;;;;;;4969114;28;20055;-65
2022/08/29 09:48:38;;;;;;;4.80;1.20;;;21.30;99.90;;;;;;4968342;28;20027;-66
2022/08/29 09:51:32;;;;;;;3.13;0.90;;;21.20;99.90;;;;;;4979080;28;20038;-65
2022/08/29 09:54:11;;;;;;;6.53;1.20;;;21.30;99.90;;;;;;4978090;28;20390;-65
2022/08/29 09:56:52;;;;;;;3.10;0.80;;;21.40;99.90;;;;;;4976784;28;20506;-65
2022/08/29 09:59:32;;;;;;;5.07;1.70;;;21.40;99.90;;;;;;4974283;28;20041;-65
2022/08/29 10:02:19;;;;;;;3.30;1.45;;;21.30;99.90;;;;;;4980091;28;20018;-65
2022/08/29 10:04:51;;;;;;;2.58;0.90;;;21.10;99.90;;;;;;4967279;28;20038;-66
2022/08/29 10:07:27;;;;;;;2.75;1.10;;;21.10;99.90;;;;;;4976523;28;20030;-66
2022/08/29 10:09:59;;;;;;;2.65;0.93;;;21.10;99.90;;;;;;4974791;28;20030;-65
2022/08/29 10:12:56;;;;;;;2.83;0.88;;;21.30;99.90;;;;;;4976047;28;20442;-66
2022/08/29 10:15:31;;;;;;;1.58;0.95;;;21.60;99.90;;;;;;4968902;28;20062;-66
2022/08/29 10:18:23;;;;;;;4.88;1.13;;;22.00;99.90;;;;;;4978400;28;20057;-66
2022/08/29 10:20:59;;;;;;;3.45;1.15;;;21.90;99.90;;;;;;4976446;28;20054;-66
2022/08/29 10:23:24;;;;;;;2.38;1.00;;;21.90;99.90;;;;;;4976280;28;20034;-65
2022/08/29 10:25:50;;;;;;;3.30;0.77;;;22.10;99.90;;;;;;4973697;28;20042;-65
2022/08/29 10:28:19;;;;;;;2.85;1.25;;;22.10;99.90;;;;;;4975582;28;20026;-66
2022/08/29 10:31:04;;;;;;;2.00;0.80;;;22.20;99.90;;;;;;4978385;28;20042;-65
2022/08/29 10:34:00;;;;;;;1.00;0.80;;;22.30;99.90;;;;;;4974101;28;20035;-65
2022/08/29 10:36:35;;;;;;;1.73;0.98;;;22.30;99.90;;;;;;4978496;28;20034;-65
2022/08/29 10:39:12;;;;;;;4.57;0.95;;;22.00;99.90;;;;;;4982909;28;20037;-66
2022/08/29 10:41:52;;;;;;;1.98;0.80;;;21.90;99.90;;;;;;4972977;28;20019;-65
2022/08/29 10:44:43;;;;;;;2.55;1.00;;;21.80;99.90;;;;;;4980822;28;20524;-66
2022/08/29 10:47:21;;;;;;;3.17;1.00;;;21.50;99.90;;;;;;4981300;28;20023;-65
2022/08/29 10:50:09;;;;;;;4.85;1.02;;;21.40;99.90;;;;;;4974246;28;20483;-65
2022/08/29 10:52:57;;;;;;;2.35;0.70;;;21.60;99.90;;;;;;4982266;28;20434;-64
2022/08/29 10:55:46;;;;;;;3.25;0.93;;;21.70;99.90;;;;;;4978116;28;20394;-65
2022/08/29 10:58:40;;;;;;;3.38;1.05;;;22.00;99.90;;;;;;4978036;28;20059;-65
2022/08/29 11:01:34;;;;;;;3.05;0.95;;;22.40;99.90;;;;;;4973021;28;20166;-65
2022/08/29 11:04:05;;;;;;;3.58;1.00;;;22.80;99.90;;;;;;4978739;28;20065;-66
2022/08/29 11:06:39;;;;;;;3.22;0.95;;;23.40;99.90;;;;;;4976900;28;20037;-66
2022/08/29 11:09:27;;;;;;;3.00;1.60;;;24.10;99.90;;;;;;4973773;28;20027;-65
2022/08/29 11:12:08;;;;;;;2.08;0.80;;;24.90;99.90;;;;;;4971457;28;20585;-65
2022/08/29 11:15:04;;;;;;;2.00;0.93;;;25.20;99.60;;;;;;4968516;28;20051;-65
2022/08/29 11:17:40;;;;;;;2.88;0.90;;;24.80;99.30;;;;;;4974261;28;20045;-64
2022/08/29 11:20:17;;;;;;;6.82;1.73;;;25.30;98.20;;;;;;4981667;28;20367;-65
2022/08/29 11:23:00;;;;;;;4.63;1.10;;;25.60;96.90;;;;;;4971540;28;20034;-65
2022/08/29 11:25:26;;;;;;;6.53;1.23;;;25.70;95.40;;;;;;4975643;28;20465;-66
2022/08/29 11:28:31;;;;;;;2.47;0.90;;;25.60;94.50;;;;;;4972399;28;20382;-65
2022/08/29 11:31:10;;;;;;;1.85;1.00;;;24.50;95.50;;;;;;4979358;28;20035;-64
2022/08/29 11:33:51;;;;;;;1.70;0.90;;;24.10;97.50;;;;;;4970853;28;20065;-65
2022/08/29 11:36:39;;;;;;;2.00;1.40;;;24.10;98.20;;;;;;4974805;28;20039;-64
2022/08/29 11:39:28;;;;;;;3.47;1.67;;;24.20;99.20;;;;;;4966262;28;20019;-65
2022/08/29 11:42:01;;;;;;;3.90;1.30;;;24.20;99.90;;;;;;4970685;28;20031;-64
2022/08/29 11:44:51;;;;;;;7.28;2.00;;;24.90;99.70;;;;;;4978631;28;20050;-65
2022/08/29 11:47:46;;;;;;;4.65;1.38;;;24.90;99.20;;;;;;4968897;28;20027;-64
2022/08/29 11:50:31;;;;;;;4.00;1.27;;;25.10;98.60;;;;;;4967822;28;20186;-64
2022/08/29 11:53:36;;;;;;;3.55;1.70;;;25.40;97.50;;;;;;4964122;28;20433;-64
2022/08/29 11:56:14;;;;;;;6.00;1.58;;;25.80;96.20;;;;;;4972242;28;20041;-64
2022/08/29 11:58:46;;;;;;;2.70;1.35;;;26.20;94.70;;;;;;4968489;28;20031;-65
2022/08/29 12:01:36;;;;;;;4.43;1.40;;;26.50;94.00;;;;;;4972255;28;20498;-64
2022/08/29 12:04:07;;;;;;;3.80;1.15;;;25.90;93.60;;;;;;4964819;28;20061;-65
2022/08/29 12:06:59;;;;;;;3.80;1.20;;;24.80;95.20;;;;;;4974977;28;20044;-65
2022/08/29 12:09:52;;;;;;;2.53;1.15;;;24.50;96.50;;;;;;4972380;28;20034;-66
2022/08/29 12:12:36;;;;;;;3.80;1.20;;;25.40;95.70;;;;;;4971627;28;20051;-64
2022/08/29 12:15:39;;;;;;;2.65;1.20;;;26.50;93.00;;;;;;4972058;28;20032;-65
2022/08/29 12:18:08;;;;;;;4.07;1.30;;;27.10;89.70;;;;;;4971933;28;20034;-64
2022/08/29 12:20:43;;;;;;;4.25;1.20;;;27.10;90.70;;;;;;4970581;28;20431;-64
2022/08/29 12:23:12;;;;;;;3.72;1.17;;;27.20;89.30;;;;;;4971539;28;20055;-64
2022/08/29 12:25:50;;;;;;;2.25;1.02;;;27.50;85.60;;;;;;4971749;28;20383;-64
2022/08/29 12:28:16;;;;;;;4.55;1.38;;;27.30;86.40;;;;;;4970401;28;20110;-65
2022/08/29 12:30:48;;;;;;;3.45;1.70;;;28.20;83.80;;;;;;4969117;28;20149;-65
2022/08/29 12:33:42;;;;;;;3.45;1.10;;;28.30;80.40;;;;;;4971564;28;20109;-67
2022/08/29 12:36:10;;;;;;;2.95;1.60;;;28.20;77.10;;;;;;4989992;28;20519;-65
2022/08/29 12:38:49;;;;;;;4.13;1.40;;;27.80;78.20;;;;;;4970153;28;20035;-65
2022/08/29 12:41:36;;;;;;;2.22;1.20;;;27.20;79.10;;;;;;4970184;28;20043;-65
2022/08/29 12:44:10;;;;;;;4.03;1.33;;;26.70;83.40;;;;;;4967159;28;20109;-65
2022/08/29 12:46:48;;;;;;;2.88;1.23;;;26.70;83.80;;;;;;4969770;28;20121;-65
2022/08/29 12:49:21;;;;;;;2.35;1.13;;;26.50;84.40;;;;;;4971628;28;20027;-64
2022/08/29 12:52:00;;;;;;;1.60;1.10;;;27.50;80.40;;;;;;4973103;28;20580;-64
2022/08/29 12:54:44;;;;;;;5.55;1.63;;;27.50;76.30;;;;;;4971207;28;20034;-64
2022/08/29 12:57:22;;;;;;;2.90;1.30;;;27.40;77.20;;;;;;4971033;28;20027;-64
2022/08/29 12:59:51;;;;;;;2.15;1.13;;;27.10;75.50;;;;;;4969932;28;20035;-65
2022/08/29 13:02:26;;;;;;;5.80;1.20;;;27.70;74.50;;;;;;4970407;28;20057;-64
2022/08/29 13:04:52;;;;;;;5.57;1.23;;;27.50;73.60;;;;;;4961471;28;20035;-64
2022/08/29 13:07:18;;;;;;;3.55;1.02;;;26.80;72.60;;;;;;4971397;28;20031;-64
2022/08/29 13:09:51;;;;;;;4.40;1.20;;;26.60;74.80;;;;;;4971120;28;20387;-64